Time;durP1;ratioP1;P1;durP2;ratioP2;P2;SDS_P1;SDS_P2;PMS_P1;PMS_P2;Temp;Humidity;BMP_temperature;BMP_pressure;BME280_temperature;BME280_humidity;BME280_pressure;Samples;Min_cycle;Max_cycle;Signal;HPM_P1;HPM_P2
2022/05/12 00:00:26;;;;;;;6.12;3.47;;;;;;;8.27;81.19;101626.23;1892096;76;21150;-62
2022/05/12 00:02:55;;;;;;;6.17;3.50;;;;;;;8.27;81.33;101629.70;1892102;75;21137;-62
2022/05/12 00:05:24;;;;;;;8.48;4.83;;;;;;;8.27;81.20;101627.54;1892138;75;21530;-62
2022/05/12 00:07:53;;;;;;;13.10;5.03;;;;;;;8.24;81.31;101626.27;1892093;76;21556;-62
2022/05/12 00:10:24;;;;;;;12.53;7.08;;;;;;;8.25;81.53;101620.14;1892107;75;21024;-63
2022/05/12 00:12:54;;;;;;;9.80;5.92;;;;;;;8.24;81.60;101618.39;1892113;74;21126;-63
2022/05/12 00:15:26;;;;;;;8.78;6.00;;;;;;;8.23;81.54;101625.41;1892165;76;21056;-62
2022/05/12 00:17:56;;;;;;;3.65;2.50;;;;;;;8.22;81.61;101628.05;1891985;75;21157;-62
2022/05/12 00:20:26;;;;;;;6.83;4.45;;;;;;;8.20;81.56;101614.95;1881424;74;21584;-69
2022/05/12 00:23:09;;;;;;;9.48;4.12;;;;;;;8.19;81.52;101623.73;1861501;76;21046;-71
2022/05/12 00:25:38;;;;;;;9.00;2.25;;;;;;;8.16;81.36;101625.07;1864785;76;21035;-73
2022/05/12 00:28:07;;;;;;;6.15;3.90;;;;;;;8.16;81.31;101623.77;1882293;76;21049;-71
2022/05/12 00:30:36;;;;;;;6.83;3.60;;;;;;;8.15;81.22;101632.95;1880961;76;21467;-66
2022/05/12 00:33:05;;;;;;;7.12;4.60;;;;;;;8.12;81.01;101633.88;1898233;74;21127;-69
2022/05/12 00:35:35;;;;;;;7.72;4.35;;;;;;;8.11;81.08;101630.41;1899193;74;21135;-71
2022/05/12 00:38:04;;;;;;;2.92;2.20;;;;;;;8.11;81.09;101627.78;1906854;74;21040;-66
2022/05/12 00:40:33;;;;;;;6.50;3.40;;;;;;;8.10;80.92;101631.73;1902393;74;21042;-67
2022/05/12 00:43:11;;;;;;;9.85;4.30;;;;;;;8.09;80.91;101629.53;1900427;74;21008;-70
2022/05/12 00:45:39;;;;;;;4.20;2.85;;;;;;;8.07;80.82;101631.31;1893726;74;21022;-71
2022/05/12 00:48:09;;;;;;;4.65;3.17;;;;;;;8.05;80.84;101629.16;1902848;74;21011;-69
2022/05/12 00:50:43;;;;;;;5.42;3.45;;;;;;;8.03;80.75;101636.64;1901978;74;21454;-65
2022/05/12 00:53:13;;;;;;;7.53;3.20;;;;;;;7.99;80.62;101634.95;1901447;74;21229;-66
2022/05/12 00:55:45;;;;;;;7.95;3.98;;;;;;;7.92;80.48;101633.70;1891771;74;21188;-65
2022/05/12 00:58:17;;;;;;;4.22;2.90;;;;;;;7.88;80.45;101636.41;1867161;76;21106;-65
2022/05/12 01:00:46;;;;;;;6.12;3.75;;;;;;;7.80;80.28;101635.20;1846398;77;21056;-62
2022/05/12 01:03:17;;;;;;;6.85;4.30;;;;;;;7.74;80.12;101632.19;1836398;77;21130;-64
2022/05/12 01:05:47;;;;;;;7.97;4.50;;;;;;;7.66;80.09;101636.68;1865476;76;21056;-63
2022/05/12 01:08:18;;;;;;;10.68;4.83;;;;;;;7.62;79.99;101632.82;1847953;76;21088;-65
2022/05/12 01:10:50;;;;;;;9.98;3.10;;;;;;;7.58;80.16;101637.23;1865078;75;21049;-63
2022/05/12 01:13:20;;;;;;;10.55;4.62;;;;;;;7.56;80.14;101640.28;1865682;76;21483;-67
2022/05/12 01:15:58;;;;;;;5.70;3.30;;;;;;;7.52;80.02;101639.91;1899670;75;21005;-63
2022/05/12 01:18:29;;;;;;;7.08;4.28;;;;;;;7.50;80.23;101639.91;1886278;75;21565;-64
2022/05/12 01:20:58;;;;;;;7.83;3.15;;;;;;;7.49;80.22;101649.14;1882482;76;21114;-66
2022/05/12 01:23:33;;;;;;;11.40;3.47;;;;;;;7.49;80.40;101647.37;1881163;76;21103;-66
2022/05/12 01:26:05;;;;;;;8.23;4.37;;;;;;;7.49;80.57;101646.06;1881023;76;21048;-66
2022/05/12 01:28:34;;;;;;;27.93;4.72;;;;;;;7.52;80.93;101644.73;1881190;76;21100;-65
2022/05/12 01:31:04;;;;;;;9.90;5.85;;;;;;;7.55;80.93;101649.05;1881001;76;21423;-65
2022/05/12 01:33:35;;;;;;;11.05;5.25;;;;;;;7.55;80.94;101637.25;1880918;76;21044;-64
2022/05/12 01:36:04;;;;;;;9.00;4.40;;;;;;;7.57;81.31;101634.17;1880925;76;21511;-63
2022/05/12 01:38:32;;;;;;;6.95;3.80;;;;;;;7.60;81.70;101635.45;1881150;76;21068;-66
2022/05/12 01:41:01;;;;;;;4.75;3.15;;;;;;;7.62;81.74;101637.61;1881172;76;21127;-66
2022/05/12 01:43:30;;;;;;;5.83;3.22;;;;;;;7.62;81.70;101640.68;1881044;76;21052;-65
2022/05/12 01:46:02;;;;;;;7.12;3.95;;;;;;;7.61;81.75;101639.79;1881022;76;21138;-67
2022/05/12 01:48:31;;;;;;;7.37;4.30;;;;;;;7.59;81.66;101645.50;1854258;76;21421;-67
2022/05/12 01:51:00;;;;;;;9.45;3.75;;;;;;;7.58;81.62;101644.20;1881216;76;21064;-66
2022/05/12 01:53:30;;;;;;;4.87;2.58;;;;;;;7.55;81.84;101645.12;1881031;76;21127;-62
2022/05/12 01:55:59;;;;;;;6.15;2.85;;;;;;;7.53;81.67;101646.89;1881179;76;21024;-62
2022/05/12 01:58:28;;;;;;;13.60;4.70;;;;;;;7.50;81.52;101649.54;1880954;76;21052;-62
2022/05/12 02:00:57;;;;;;;9.10;4.67;;;;;;;7.48;81.48;101650.01;1880946;76;21049;-62
2022/05/12 02:03:26;;;;;;;4.90;3.22;;;;;;;7.48;81.54;101648.70;1881147;76;21060;-64
2022/05/12 02:05:54;;;;;;;5.58;3.30;;;;;;;7.47;81.59;101650.87;1881197;76;21569;-64
2022/05/12 02:08:23;;;;;;;7.80;3.87;;;;;;;7.45;81.54;101648.72;1881155;76;21130;-64
2022/05/12 02:10:53;;;;;;;9.23;3.90;;;;;;;7.44;81.34;101648.31;1881051;76;21049;-64
2022/05/12 02:13:25;;;;;;;8.10;3.70;;;;;;;7.43;81.40;101646.14;1880948;76;21114;-62
2022/05/12 02:15:52;;;;;;;9.23;4.45;;;;;;;7.45;81.47;101653.96;1882155;76;21036;-62
2022/05/12 02:18:22;;;;;;;11.63;4.35;;;;;;;7.48;81.37;101653.94;1882506;74;21072;-63
2022/05/12 02:20:51;;;;;;;9.00;4.55;;;;;;;7.52;81.45;101654.31;1916923;75;21106;-61
2022/05/12 02:23:20;;;;;;;7.03;3.60;;;;;;;7.58;81.38;101659.93;1915821;74;21135;-61
2022/05/12 02:25:50;;;;;;;7.30;3.95;;;;;;;7.63;81.38;101653.74;1915336;75;21464;-63
2022/05/12 02:28:19;;;;;;;5.90;3.37;;;;;;;7.74;81.56;101661.03;1915349;75;21041;-63
2022/05/12 02:30:48;;;;;;;5.80;3.15;;;;;;;7.85;81.88;101662.66;1915453;75;21416;-63
2022/05/12 02:33:16;;;;;;;17.30;3.92;;;;;;;7.96;81.75;101667.31;1915322;75;21016;-63
2022/05/12 02:35:45;;;;;;;8.65;4.03;;;;;;;8.03;81.57;101665.03;1915428;75;21198;-61
2022/05/12 02:38:15;;;;;;;4.15;3.12;;;;;;;8.09;81.39;101670.19;1915530;75;21052;-64
2022/05/12 02:40:44;;;;;;;5.12;3.42;;;;;;;8.17;81.41;101675.78;1915450;74;21033;-64
2022/05/12 02:43:25;;;;;;;13.70;4.03;;;;;;;8.28;81.51;101670.81;1915374;75;21409;-61
2022/05/12 02:45:56;;;;;;;8.23;4.60;;;;;;;8.40;81.69;101679.39;1915356;75;21479;-61
2022/05/12 02:48:28;;;;;;;7.33;3.72;;;;;;;8.39;81.55;101670.66;1915525;75;21467;-61
2022/05/12 02:50:57;;;;;;;8.28;4.53;;;;;;;8.37;81.33;101677.66;1915254;75;21045;-63
2022/05/12 02:53:27;;;;;;;11.78;3.27;;;;;;;8.42;81.15;101682.44;1915289;75;21077;-61
2022/05/12 02:55:56;;;;;;;10.78;5.25;;;;;;;8.57;81.00;101685.73;1915321;75;21112;-61
2022/05/12 02:58:25;;;;;;;8.88;4.55;;;;;;;8.76;80.94;101683.24;1915355;75;21632;-62
2022/05/12 03:00:54;;;;;;;6.70;3.37;;;;;;;9.01;81.09;101686.75;1915480;75;21521;-65
2022/05/12 03:03:23;;;;;;;7.72;3.67;;;;;;;9.30;80.92;101690.18;1886456;75;21040;-64
2022/05/12 03:05:53;;;;;;;5.15;3.15;;;;;;;9.45;81.15;101692.97;1915451;75;21533;-62
2022/05/12 03:08:22;;;;;;;7.00;3.20;;;;;;;9.55;81.51;101697.13;1915300;75;21467;-62
2022/05/12 03:10:56;;;;;;;5.08;3.65;;;;;;;9.63;81.75;101693.06;1915492;75;21468;-62
2022/05/12 03:13:22;;;;;;;12.53;3.85;;;;;;;9.78;81.97;101699.77;1914304;75;21060;-63
2022/05/12 03:15:52;;;;;;;14.55;4.08;;;;;;;9.88;81.99;101701.30;1916609;74;21106;-63
2022/05/12 03:18:21;;;;;;;15.05;4.10;;;;;;;9.99;81.95;101703.25;1916953;74;21471;-63
2022/05/12 03:20:50;;;;;;;9.60;3.90;;;;;;;10.13;82.00;101700.34;1914080;75;21146;-66
2022/05/12 03:23:22;;;;;;;11.45;3.60;;;;;;;10.27;81.87;101705.28;1912593;75;21008;-63
2022/05/12 03:25:49;;;;;;;4.97;3.27;;;;;;;10.37;81.42;101712.13;1911802;74;21041;-63
2022/05/12 03:28:19;;;;;;;7.35;3.22;;;;;;;10.48;81.06;101713.66;1911957;74;21069;-69
2022/05/12 03:30:47;;;;;;;6.55;3.87;;;;;;;10.54;80.52;101709.09;1911947;74;21150;-71
2022/05/12 03:33:16;;;;;;;4.85;2.40;;;;;;;10.60;79.80;101711.61;1911947;75;21033;-67
2022/05/12 03:35:45;;;;;;;4.17;2.33;;;;;;;10.68;79.28;101720.64;1911885;75;21037;-71
2022/05/12 03:38:14;;;;;;;6.83;3.25;;;;;;;10.77;78.98;101719.09;1911888;74;21127;-67
2022/05/12 03:40:43;;;;;;;4.00;2.62;;;;;;;10.81;78.43;101727.34;1911869;75;21040;-63
2022/05/12 03:44:46;;;;;;;8.10;2.77;;;;;;;10.92;78.17;101719.59;1911809;74;21033;-66
2022/05/12 03:45:42;;;;;;;8.20;3.33;;;;;;;11.00;77.55;101721.15;1909192;75;21107;-65
2022/05/12 03:48:12;;;;;;;12.07;3.58;;;;;;;11.06;76.95;101729.35;1911855;75;21037;-66
2022/05/12 03:50:42;;;;;;;5.28;3.25;;;;;;;11.18;76.58;101730.83;1911297;74;21523;-66
2022/05/12 03:53:11;;;;;;;5.65;2.92;;;;;;;11.31;76.02;101734.02;1911986;75;21009;-65
2022/05/12 03:55:40;;;;;;;6.00;3.20;;;;;;;11.43;75.50;101736.30;1911723;74;21526;-67
2022/05/12 03:58:09;;;;;;;5.78;3.02;;;;;;;11.62;75.13;101745.03;1911859;75;21045;-64
2022/05/12 04:00:38;;;;;;;7.60;4.05;;;;;;;11.76;74.37;101733.66;1911862;75;21504;-66
2022/05/12 04:03:07;;;;;;;6.95;3.62;;;;;;;11.96;73.84;101743.22;1911825;74;21065;-68
2022/05/12 04:05:36;;;;;;;6.33;2.67;;;;;;;12.11;72.83;101742.37;1911780;75;21124;-65
2022/05/12 04:08:05;;;;;;;9.50;3.70;;;;;;;12.27;72.33;101733.08;1911646;75;21041;-65
2022/05/12 04:10:34;;;;;;;6.80;3.08;;;;;;;12.55;72.18;101741.02;1911855;75;21102;-65
2022/05/12 04:13:03;;;;;;;7.30;3.33;;;;;;;12.78;71.52;101737.23;1911841;75;21040;-65
2022/05/12 04:15:31;;;;;;;3.95;2.15;;;;;;;13.06;71.14;101739.85;1913187;74;21040;-65
2022/05/12 04:18:04;;;;;;;5.42;2.98;;;;;;;13.28;70.23;101745.28;1913758;75;21483;-63
2022/05/12 04:20:36;;;;;;;5.08;2.55;;;;;;;13.45;69.66;101749.55;1913474;74;21044;-61
2022/05/12 04:23:05;;;;;;;4.37;3.12;;;;;;;13.61;68.76;101752.96;1912573;75;21037;-61
2022/05/12 04:25:36;;;;;;;9.93;3.20;;;;;;;13.85;68.58;101758.72;1905994;74;21041;-67
2022/05/12 04:28:05;;;;;;;9.38;3.80;;;;;;;14.09;68.05;101753.41;1911914;75;21040;-67
2022/05/12 04:30:34;;;;;;;3.67;2.17;;;;;;;14.31;67.19;101753.45;1912020;75;21037;-62
2022/05/12 04:36:09;;;;;;;5.45;2.85;;;;;;;14.56;66.37;101759.14;1911796;74;21514;-63
2022/05/12 04:38:39;;;;;;;5.12;2.70;;;;;;;14.85;66.14;101769.95;1852659;77;21133;-61
2022/05/12 04:41:16;;;;;;;4.95;2.35;;;;;;;15.10;65.18;101772.91;1852702;77;21046;-65
2022/05/12 04:43:43;;;;;;;5.50;2.75;;;;;;;15.33;65.12;101774.61;1850838;77;21077;-64
2022/05/12 04:46:16;;;;;;;5.28;2.25;;;;;;;15.47;63.71;101766.03;1852708;77;21054;-65
2022/05/12 04:48:51;;;;;;;3.27;2.22;;;;;;;15.70;63.87;101768.55;1853010;77;21542;-65
2022/05/12 04:51:42;;;;;;;9.25;2.83;;;;;;;16.02;63.54;101760.96;1850199;76;21077;-67
2022/05/12 04:54:35;;;;;;;7.42;2.83;;;;;;;16.32;62.68;101761.80;1799953;78;21547;-63
2022/05/12 04:57:07;;;;;;;5.30;2.33;;;;;;;16.50;61.66;101748.97;1805961;79;21136;-64
2022/05/12 04:59:38;;;;;;;3.45;2.12;;;;;;;16.66;61.04;101758.89;1805752;78;21628;-67
2022/05/12 05:02:07;;;;;;;6.05;3.20;;;;;;;16.67;59.76;101769.89;1863734;77;21057;-66
2022/05/12 05:04:35;;;;;;;3.52;2.10;;;;;;;16.71;58.82;101764.38;1863770;77;21101;-66
2022/05/12 05:07:10;;;;;;;6.40;2.65;;;;;;;16.83;59.07;101773.57;1863809;76;21598;-65
2022/05/12 05:09:37;;;;;;;8.00;2.90;;;;;;;16.95;57.41;101778.78;1839772;77;21123;-66
2022/05/12 05:12:08;;;;;;;7.70;2.10;;;;;;;17.20;58.23;101770.89;1840853;78;21153;-67
2022/05/12 05:14:36;;;;;;;10.00;2.58;;;;;;;17.49;57.68;101778.72;1848824;76;21547;-68
2022/05/12 05:17:05;;;;;;;4.60;2.40;;;;;;;17.60;56.02;101781.69;1861192;77;21046;-66
2022/05/12 05:19:35;;;;;;;7.20;2.55;;;;;;;17.49;54.61;101774.25;1862407;77;21025;-67
2022/05/12 05:22:07;;;;;;;5.58;2.75;;;;;;;17.59;55.08;101798.59;1886252;76;21544;-65
2022/05/12 05:24:36;;;;;;;5.15;2.95;;;;;;;17.89;54.21;101787.30;1849719;77;21093;-67
2022/05/12 05:27:06;;;;;;;5.97;2.42;;;;;;;18.11;54.23;101795.00;1850961;77;21164;-67
2022/05/12 05:29:37;;;;;;;6.55;3.47;;;;;;;18.46;54.20;101810.43;1851024;77;21525;-66
2022/05/12 05:32:06;;;;;;;6.45;2.33;;;;;;;18.71;53.41;101795.70;1850994;77;21079;-67
2022/05/12 05:34:35;;;;;;;5.10;2.50;;;;;;;18.86;52.46;101793.52;1851036;77;21534;-66
2022/05/12 05:37:05;;;;;;;3.72;2.08;;;;;;;18.83;50.59;101788.38;1851039;77;21137;-64
2022/05/12 05:39:37;;;;;;;9.25;2.58;;;;;;;18.80;50.62;101793.86;1850497;76;21086;-65
2022/05/12 05:42:09;;;;;;;4.37;2.22;;;;;;;18.98;50.96;101789.76;1851099;77;21109;-64
2022/05/12 05:44:39;;;;;;;6.75;2.12;;;;;;;19.24;50.82;101786.45;1850973;77;21120;-65
2022/05/12 05:47:08;;;;;;;5.17;2.35;;;;;;;19.53;50.31;101793.21;1851004;77;21054;-65
2022/05/12 05:49:37;;;;;;;5.30;2.27;;;;;;;19.59;49.09;101796.84;1851090;77;21168;-65
2022/05/12 05:54:55;;;;;;;8.03;2.35;;;;;;;19.68;48.41;101793.61;1851147;77;21121;-64
2022/05/12 05:57:35;;;;;;;2.27;1.67;;;;;;;19.96;48.39;101801.30;1846840;77;21129;-64
2022/05/12 06:00:05;;;;;;;2.27;2.08;;;;;;;20.21;48.10;101795.30;1844526;77;21085;-65
2022/05/12 06:02:34;;;;;;;5.03;2.25;;;;;;;20.28;46.99;101801.58;1827718;77;21651;-67
2022/05/12 06:05:03;;;;;;;7.08;1.90;;;;;;;20.50;47.06;101799.25;1847754;77;21093;-65
2022/05/12 06:07:38;;;;;;;3.72;2.33;;;;;;;20.67;46.58;101806.70;1847882;78;21104;-64
2022/05/12 06:10:09;;;;;;;5.20;2.30;;;;;;;20.81;46.36;101795.96;1847791;78;21120;-65
2022/05/12 06:12:42;;;;;;;4.55;2.45;;;;;;;20.80;45.88;101799.13;1847839;78;21086;-64
2022/05/12 06:15:11;;;;;;;3.70;2.50;;;;;;;20.97;45.02;101802.48;1863964;75;21120;-66
2022/05/12 06:17:43;;;;;;;4.12;2.22;;;;;;;21.12;44.87;101800.14;1880882;76;21535;-65
2022/05/12 06:20:13;;;;;;;6.70;2.02;;;;;;;21.34;44.43;101801.35;1880904;76;21108;-64
2022/05/12 06:22:41;;;;;;;3.85;1.80;;;;;;;21.65;44.89;101800.64;1867090;76;21566;-70
2022/05/12 06:25:12;;;;;;;4.42;1.60;;;;;;;21.77;43.76;101798.45;1847638;77;21120;-65
2022/05/12 06:27:51;;;;;;;4.17;1.90;;;;;;;22.01;43.48;101802.58;1846401;78;21034;-65
2022/05/12 06:30:28;;;;;;;3.22;2.10;;;;;;;21.87;42.08;101797.31;1847354;77;21738;-64
2022/05/12 06:32:51;;;;;;;4.50;2.45;;;;;;;21.71;42.02;101797.55;1842546;78;21082;-64
2022/05/12 06:35:20;;;;;;;2.77;1.30;;;;;;;21.89;41.96;101802.09;1847798;77;21055;-65
2022/05/12 06:37:49;;;;;;;3.92;1.95;;;;;;;21.81;41.80;101799.95;1847804;78;21136;-64
2022/05/12 06:40:19;;;;;;;9.08;2.80;;;;;;;21.83;41.50;101800.70;1847620;78;21074;-64
2022/05/12 06:42:50;;;;;;;4.42;2.50;;;;;;;21.79;41.37;101792.50;1847811;78;21054;-64
2022/05/12 06:45:21;;;;;;;4.78;1.98;;;;;;;21.43;41.11;101810.11;1847718;78;21513;-64
2022/05/12 06:47:56;;;;;;;3.30;2.40;;;;;;;21.50;41.35;101796.70;1847733;78;21055;-64
2022/05/12 06:50:28;;;;;;;4.47;2.37;;;;;;;21.54;41.20;101792.87;1847654;78;21078;-70
2022/05/12 06:52:57;;;;;;;3.42;1.92;;;;;;;21.79;41.34;101795.18;1847767;78;21157;-67
2022/05/12 06:55:31;;;;;;;4.95;2.10;;;;;;;22.01;39.95;101787.83;1847854;78;21517;-66
2022/05/12 06:58:07;;;;;;;4.83;2.08;;;;;;;22.52;40.60;101794.93;1846289;76;21121;-62
2022/05/12 07:00:34;;;;;;;3.85;1.62;;;;;;;22.41;37.73;101790.83;1845517;77;21136;-66
2022/05/12 07:03:04;;;;;;;4.97;2.40;;;;;;;22.50;38.70;101790.16;1847814;78;21505;-65
2022/05/12 07:05:34;;;;;;;3.70;1.67;;;;;;;22.72;38.10;101786.76;1847736;78;21485;-63
2022/05/12 07:08:04;;;;;;;3.65;1.95;;;;;;;23.02;37.91;101797.06;1847793;78;21050;-65
2022/05/12 07:10:37;;;;;;;4.90;2.05;;;;;;;23.30;37.08;101793.16;1847853;78;21112;-65
2022/05/12 07:13:19;;;;;;;4.50;2.08;;;;;;;23.37;35.94;101790.88;1846546;76;21077;-67
2022/05/12 07:15:44;;;;;;;2.92;1.77;;;;;;;23.46;34.75;101789.28;1870532;76;21181;-67
2022/05/12 07:18:21;;;;;;;3.25;1.85;;;;;;;23.35;35.25;101792.83;1880885;75;21022;-67
2022/05/12 07:26:47;;;;;;;4.20;1.72;;;;;;;23.09;35.40;101791.63;1857622;77;21099;-64
2022/05/12 07:29:14;;;;;;;2.75;1.80;;;;;;;23.06;35.25;101798.56;1838963;77;21064;-60
2022/05/12 07:31:43;;;;;;;3.20;1.75;;;;;;;23.01;34.90;101796.67;1856248;75;21514;-61
2022/05/12 07:34:14;;;;;;;4.00;1.72;;;;;;;23.43;35.19;101800.30;1853827;77;21518;-64
2022/05/12 07:36:51;;;;;;;6.30;1.65;;;;;;;23.68;34.35;101796.54;1825918;78;21152;-69
2022/05/12 07:39:23;;;;;;;3.40;1.72;;;;;;;23.67;32.88;101792.16;1830073;78;21053;-67
2022/05/12 07:41:53;;;;;;;2.85;1.62;;;;;;;23.50;32.47;101808.25;1855976;77;21606;-67
2022/05/12 07:44:34;;;;;;;3.60;1.37;;;;;;;23.66;33.38;101802.53;1855752;77;21122;-66
2022/05/12 07:47:06;;;;;;;3.45;1.82;;;;;;;23.82;33.07;101796.36;1854825;76;21265;-67
2022/05/12 07:49:39;;;;;;;3.98;1.80;;;;;;;23.79;33.11;101795.27;1850962;77;21093;-65
2022/05/12 07:52:15;;;;;;;3.33;1.75;;;;;;;23.88;32.72;101802.61;1851024;77;21082;-65
2022/05/12 07:54:54;;;;;;;3.27;1.80;;;;;;;24.12;32.96;101804.31;1850972;77;21513;-65
2022/05/12 07:57:32;;;;;;;2.35;1.27;;;;;;;24.33;32.25;101798.18;1846783;76;21639;-65
2022/05/12 08:00:00;;;;;;;4.20;1.60;;;;;;;24.64;32.62;101808.69;1803577;78;21057;-65
2022/05/12 08:02:31;;;;;;;4.95;2.02;;;;;;;24.82;31.41;101804.98;1836557;77;21564;-65
2022/05/12 08:05:05;;;;;;;4.03;1.92;;;;;;;24.89;31.26;101810.22;1853414;77;21053;-65
2022/05/12 08:07:36;;;;;;;2.87;1.47;;;;;;;24.76;30.78;101800.95;1838938;78;21562;-65
2022/05/12 08:10:08;;;;;;;6.12;2.60;;;;;;;24.69;31.05;101815.05;1853260;77;21105;-66
2022/05/12 08:12:37;;;;;;;6.42;2.98;;;;;;;24.97;31.40;101803.72;1841176;77;21547;-65
2022/05/12 08:15:13;;;;;;;5.15;1.50;;;;;;;25.31;31.31;101814.38;1865458;76;21050;-65
2022/05/12 08:17:42;;;;;;;3.83;1.92;;;;;;;25.55;30.32;101811.42;1869791;75;21167;-64
2022/05/12 08:20:12;;;;;;;4.72;1.72;;;;;;;25.42;28.87;101808.08;1887527;76;21112;-66
2022/05/12 08:22:42;;;;;;;2.65;1.77;;;;;;;25.00;29.38;101816.06;1887311;76;21497;-67
2022/05/12 08:25:12;;;;;;;3.98;1.65;;;;;;;25.09;28.85;101807.72;1887620;76;21112;-66
2022/05/12 08:27:41;;;;;;;3.80;1.62;;;;;;;25.12;29.63;101816.87;1863480;76;21422;-62
2022/05/12 08:30:13;;;;;;;3.35;1.42;;;;;;;25.25;29.49;101806.82;1833858;78;21065;-64
2022/05/12 08:32:45;;;;;;;2.62;1.37;;;;;;;25.21;29.31;101798.58;1851732;77;21081;-63
2022/05/12 08:35:17;;;;;;;3.52;1.50;;;;;;;25.28;28.94;101806.54;1857939;77;21512;-62
2022/05/12 08:37:49;;;;;;;3.02;1.40;;;;;;;25.25;28.32;101822.99;1837135;77;21122;-63
2022/05/12 08:40:25;;;;;;;1.72;1.20;;;;;;;25.41;28.81;101821.18;1840470;78;21109;-62
2022/05/12 08:42:55;;;;;;;3.12;1.27;;;;;;;25.41;28.37;101825.22;1837397;78;21039;-65
2022/05/12 08:45:29;;;;;;;3.35;2.22;;;;;;;25.27;28.63;101830.45;1839987;78;21018;-62
2022/05/12 08:47:57;;;;;;;3.20;1.55;;;;;;;24.97;28.90;101814.50;1840587;77;21129;-62
2022/05/12 08:50:28;;;;;;;3.15;1.57;;;;;;;24.80;29.19;101824.45;1840332;78;21078;-63
2022/05/12 08:53:03;;;;;;;3.83;1.50;;;;;;;24.90;29.64;101822.72;1840288;78;21039;-64
2022/05/12 08:55:40;;;;;;;2.98;1.40;;;;;;;25.07;29.27;101825.35;1840126;77;21011;-64
2022/05/12 08:58:27;;;;;;;3.75;1.55;;;;;;;25.16;29.11;101827.78;1837789;77;21556;-66
2022/05/12 09:01:02;;;;;;;3.27;1.57;;;;;;;24.91;28.38;101824.42;1831210;78;21063;-65
2022/05/12 09:03:46;;;;;;;5.35;1.40;;;;;;;25.19;28.29;101824.80;1831037;77;21062;-65
2022/05/12 09:06:14;;;;;;;5.83;1.40;;;;;;;25.21;28.49;101835.84;1829411;77;21028;-63
2022/05/12 09:08:48;;;;;;;3.75;1.50;;;;;;;25.33;27.55;101835.31;1826137;78;21477;-65
2022/05/12 09:11:22;;;;;;;5.55;1.70;;;;;;;25.21;27.82;101824.18;1831178;77;21115;-63
2022/05/12 09:13:53;;;;;;;1.27;1.10;;;;;;;25.16;28.88;101825.08;1830390;77;21051;-63
2022/05/12 09:16:33;;;;;;;7.90;1.50;;;;;;;25.26;29.19;101831.42;1845310;77;21029;-64
2022/05/12 09:19:01;;;;;;;3.47;1.60;;;;;;;24.84;28.24;101832.17;1854921;77;21637;-68
2022/05/12 09:21:36;;;;;;;3.95;1.70;;;;;;;24.67;28.98;101832.68;1830130;78;21152;-64
2022/05/12 09:24:09;;;;;;;5.33;1.98;;;;;;;24.40;28.75;101833.05;1846747;76;21093;-67
2022/05/12 09:26:48;;;;;;;2.92;1.35;;;;;;;24.38;29.44;101852.03;1850783;77;21512;-65
2022/05/12 09:29:31;;;;;;;3.08;1.72;;;;;;;24.64;29.17;101848.61;1849861;77;21069;-65
2022/05/12 09:32:14;;;;;;;4.03;1.40;;;;;;;24.58;29.04;101831.59;1850762;77;21123;-65
2022/05/12 09:34:46;;;;;;;1.85;1.10;;;;;;;24.23;28.92;101846.02;1847527;77;21490;-65
2022/05/12 09:37:21;;;;;;;2.50;1.30;;;;;;;23.85;28.05;101835.12;1851200;77;21120;-67
2022/05/12 09:39:52;;;;;;;4.22;1.20;;;;;;;23.89;28.14;101846.00;1851194;77;21117;-67
2022/05/12 09:42:33;;;;;;;5.08;1.40;;;;;;;23.74;29.22;101849.86;1851131;77;21057;-66
2022/05/12 09:45:11;;;;;;;2.02;1.15;;;;;;;23.76;29.71;101843.03;1851081;77;21038;-66
2022/05/12 09:47:41;;;;;;;3.58;1.60;;;;;;;23.79;30.60;101837.39;1850005;77;21574;-67
2022/05/12 09:50:26;;;;;;;5.37;1.57;;;;;;;23.95;31.04;101837.09;1850678;77;21155;-66
2022/05/12 09:53:00;;;;;;;2.42;1.42;;;;;;;23.91;30.85;101854.45;1850866;77;21062;-65
2022/05/12 09:55:42;;;;;;;5.58;2.00;;;;;;;23.81;30.46;101841.72;1850742;76;21065;-66
2022/05/12 09:58:19;;;;;;;4.55;1.65;;;;;;;23.73;30.69;101842.76;1850628;77;21124;-67
2022/05/12 10:01:12;;;;;;;7.05;1.98;;;;;;;23.33;31.71;101841.77;1849431;76;21512;-65
2022/05/12 10:09:36;;;;;;;4.08;1.90;;;;;;;23.12;32.05;101859.03;1850928;77;21132;-67
2022/05/12 10:12:13;;;;;;;2.62;2.20;;;;;;;23.27;31.37;101842.25;1845380;77;21061;-65
2022/05/12 10:15:08;;;;;;;7.47;1.90;;;;;;;23.27;32.24;101850.31;1862115;76;21498;-65
2022/05/12 10:17:51;;;;;;;2.25;1.42;;;;;;;23.07;32.23;101844.62;1881071;76;21106;-67
2022/05/12 10:20:19;;;;;;;3.33;1.98;;;;;;;22.97;32.64;101858.31;1880961;75;21161;-67
2022/05/12 10:22:54;;;;;;;5.33;1.32;;;;;;;23.03;32.74;101850.28;1880876;75;21091;-65
2022/05/12 10:25:29;;;;;;;3.27;1.90;;;;;;;22.51;33.43;101841.55;1835974;76;21050;-67
2022/05/12 10:28:19;;;;;;;6.25;2.20;;;;;;;22.05;33.35;101851.00;1859405;77;21598;-65
2022/05/12 10:30:59;;;;;;;2.80;1.92;;;;;;;21.69;34.24;101845.02;1857487;77;21489;-65
2022/05/12 10:33:40;;;;;;;1.27;1.10;;;;;;;21.12;35.32;101842.14;1858441;76;21143;-66
2022/05/12 10:36:23;;;;;;;3.90;1.60;;;;;;;20.87;35.43;101853.59;1850194;77;21102;-68
2022/05/12 10:39:04;;;;;;;4.70;2.02;;;;;;;21.23;36.34;101854.79;1850229;76;21058;-68
2022/05/12 10:41:36;;;;;;;4.15;1.65;;;;;;;21.72;36.58;101858.22;1850976;77;21054;-66
2022/05/12 10:44:13;;;;;;;4.65;2.75;;;;;;;21.74;36.23;101858.48;1851149;77;21050;-67
2022/05/12 10:46:53;;;;;;;3.12;1.40;;;;;;;21.52;36.62;101860.91;1830052;76;21105;-67
2022/05/12 10:49:36;;;;;;;4.00;1.98;;;;;;;21.15;37.13;101853.48;1851036;77;21054;-67
2022/05/12 10:52:14;;;;;;;4.30;1.75;;;;;;;21.24;37.77;101839.11;1850050;77;21516;-65
2022/05/12 10:54:55;;;;;;;2.95;2.02;;;;;;;20.96;38.03;101838.27;1854922;77;21590;-63
2022/05/12 10:57:57;;;;;;;3.30;1.80;;;;;;;20.76;38.72;101839.55;1859085;77;21050;-64
2022/05/12 11:00:48;;;;;;;5.10;2.92;;;;;;;20.66;39.10;101854.02;1847432;77;21165;-63
2022/05/12 11:03:18;;;;;;;3.35;2.05;;;;;;;20.52;39.61;101837.45;1826541;78;21125;-65
2022/05/12 11:05:51;;;;;;;4.00;1.80;;;;;;;20.32;39.81;101857.44;1837546;78;21070;-66
2022/05/12 11:08:41;;;;;;;4.75;1.90;;;;;;;20.47;39.56;101862.78;1825962;78;21038;-65
2022/05/12 11:11:13;;;;;;;2.72;1.75;;;;;;;20.44;40.01;101860.69;1839244;78;21130;-64
2022/05/12 11:13:44;;;;;;;4.90;1.70;;;;;;;20.36;39.94;101856.77;1822519;78;21148;-63
2022/05/12 11:16:26;;;;;;;4.58;2.12;;;;;;;20.27;40.08;101860.91;1853003;77;21033;-64
2022/05/12 11:19:14;;;;;;;3.75;1.77;;;;;;;20.14;39.86;101855.91;1858951;76;21034;-67
2022/05/12 11:21:46;;;;;;;4.10;2.60;;;;;;;20.03;40.30;101853.92;1859324;76;21045;-68
2022/05/12 11:24:23;;;;;;;3.60;2.12;;;;;;;19.95;40.28;101853.03;1824648;78;21054;-66
2022/05/12 11:27:16;;;;;;;4.90;2.22;;;;;;;19.91;40.48;101863.53;1826572;78;21070;-66
2022/05/12 11:30:13;;;;;;;4.67;2.42;;;;;;;19.68;41.27;101832.35;1826888;78;21152;-67
2022/05/12 11:33:06;;;;;;;5.87;1.57;;;;;;;19.68;41.32;101848.38;1826445;78;21053;-63
2022/05/12 11:35:45;;;;;;;3.35;2.22;;;;;;;19.55;41.25;101834.05;1820984;78;21513;-61
2022/05/12 11:38:45;;;;;;;3.70;2.15;;;;;;;19.41;41.41;101851.36;1795848;79;21042;-66
2022/05/12 11:41:22;;;;;;;5.17;1.95;;;;;;;19.36;41.63;101842.74;1825671;78;21050;-63
2022/05/12 11:46:53;;;;;;;5.12;1.42;;;;;;;19.25;41.63;101834.02;1839945;78;21077;-65
2022/05/12 11:49:43;;;;;;;4.35;1.95;;;;;;;19.29;42.46;101836.44;1826812;78;21124;-66
2022/05/12 11:52:34;;;;;;;5.08;1.87;;;;;;;19.38;42.53;101832.83;1840946;78;21061;-65
2022/05/12 11:55:06;;;;;;;4.05;2.30;;;;;;;19.47;42.98;101834.95;1826530;78;21551;-66
2022/05/12 11:57:41;;;;;;;2.52;1.55;;;;;;;19.45;42.71;101842.20;1823539;77;21135;-66
2022/05/12 12:00:12;;;;;;;5.17;2.80;;;;;;;19.27;42.89;101834.79;1840661;76;21085;-63
2022/05/12 12:02:44;;;;;;;3.15;1.67;;;;;;;19.07;43.88;101836.82;1861636;77;21547;-65
2022/05/12 12:05:15;;;;;;;5.65;1.90;;;;;;;18.95;44.03;101854.01;1863727;76;21161;-66
2022/05/12 12:07:47;;;;;;;5.37;2.70;;;;;;;18.84;44.45;101831.45;1854632;77;21019;-65
2022/05/12 12:10:28;;;;;;;4.03;2.08;;;;;;;18.84;45.04;101831.92;1863694;77;21071;-63
2022/05/12 12:13:18;;;;;;;6.60;2.17;;;;;;;18.75;44.23;101827.93;1863235;77;21046;-69